createdAt,value
2023-05-13T00:03:28.763Z,9.97
2023-05-13T00:07:30.219Z,10.27
2023-05-13T00:11:31.373Z,10.80
2023-05-13T00:15:32.579Z,11.03
2023-05-13T00:19:33.707Z,10.47
2023-05-13T00:23:34.871Z,10.90
2023-05-13T00:27:36.077Z,11.63
2023-05-13T00:31:37.301Z,10.97
2023-05-13T00:35:38.530Z,10.53
2023-05-13T00:39:39.782Z,10.40
2023-05-13T00:43:40.845Z,9.47
2023-05-13T00:47:42.764Z,10.17
2023-05-13T00:51:44.261Z,9.83
2023-05-13T00:55:46.002Z,11.00
2023-05-13T00:59:47.120Z,8.83
2023-05-13T01:03:55.093Z,10.10
2023-05-13T01:08:08.653Z,8.57
2023-05-13T01:12:13.614Z,8.90
2023-05-13T01:16:24.296Z,10.80
2023-05-13T01:20:26.554Z,8.90
2023-05-13T01:24:27.818Z,9.67
2023-05-13T01:28:29.371Z,7.90
2023-05-13T01:32:31.208Z,9.70
2023-05-13T01:36:32.311Z,7.90
2023-05-13T01:40:34.862Z,9.53
2023-05-13T01:44:36.340Z,8.43
2023-05-13T01:48:37.508Z,7.70
2023-05-13T01:52:38.688Z,7.70
2023-05-13T01:56:39.843Z,8.80
2023-05-13T02:00:40.991Z,9.43
2023-05-13T02:04:42.158Z,8.00
2023-05-13T02:08:43.306Z,9.00
2023-05-13T02:12:44.467Z,12.70
2023-05-13T02:16:45.669Z,7.97
2023-05-13T02:20:47.175Z,7.90
2023-05-13T02:24:48.335Z,8.63
2023-05-13T02:28:49.771Z,8.90
2023-05-13T02:32:51.016Z,8.83
2023-05-13T02:36:52.197Z,7.03
2023-05-13T02:40:53.363Z,8.87
2023-05-13T02:44:54.611Z,8.23
2023-05-13T02:48:55.669Z,8.67
2023-05-13T02:52:56.927Z,8.73
2023-05-13T02:56:58.090Z,9.40
2023-05-13T03:00:59.356Z,7.90
2023-05-13T03:05:00.576Z,8.50
2023-05-13T03:09:01.727Z,9.37
2023-05-13T03:13:02.888Z,11.13
2023-05-13T03:17:04.232Z,9.13
2023-05-13T03:21:05.490Z,10.33
2023-05-13T03:25:07.046Z,8.80
2023-05-13T03:29:08.184Z,9.13
2023-05-13T03:33:09.359Z,8.50
2023-05-13T03:37:10.535Z,8.57
2023-05-13T03:41:11.660Z,8.27
2023-05-13T03:45:12.808Z,13.33
2023-05-13T03:49:14.030Z,8.70
2023-05-13T03:53:16.487Z,8.20
2023-05-13T03:57:17.662Z,8.83
2023-05-13T04:01:18.826Z,8.77
2023-05-13T04:05:20.058Z,9.00
2023-05-13T04:09:21.238Z,9.07
2023-05-13T04:13:22.317Z,8.80
2023-05-13T04:17:23.569Z,11.37
2023-05-13T04:21:24.729Z,10.90
2023-05-13T04:25:25.925Z,8.50
2023-05-13T04:29:27.095Z,10.90
2023-05-13T04:33:28.247Z,8.73
2023-05-13T04:37:29.520Z,7.20
2023-05-13T04:41:30.647Z,7.67
2023-05-13T04:45:31.827Z,8.40
2023-05-13T04:49:33.036Z,9.40
2023-05-13T04:53:35.585Z,10.63
2023-05-13T04:57:36.744Z,11.13
2023-05-13T05:01:38.748Z,7.77
2023-05-13T05:05:39.916Z,8.50
2023-05-13T05:09:41.070Z,8.53
2023-05-13T05:13:42.224Z,8.47
2023-05-13T05:17:44.281Z,7.70
2023-05-13T05:21:45.440Z,7.73
2023-05-13T05:25:46.648Z,9.20
2023-05-13T05:29:47.802Z,7.40
2023-05-13T05:33:48.987Z,8.63
2023-05-13T05:37:50.705Z,7.80
2023-05-13T05:41:52.657Z,7.30
2023-05-13T05:45:53.864Z,6.57
2023-05-13T05:49:55.075Z,10.80
2023-05-13T05:53:57.594Z,8.47
2023-05-13T05:58:00.591Z,7.10
2023-05-13T06:02:01.773Z,7.43
2023-05-13T06:06:03.273Z,7.10
2023-05-13T06:10:06.427Z,6.00
2023-05-13T06:14:07.829Z,6.07
2023-05-13T06:18:09.004Z,5.80
2023-05-13T06:22:10.635Z,6.17
2023-05-13T06:26:11.812Z,5.70
2023-05-13T06:30:13.236Z,5.90
2023-05-13T06:34:15.947Z,7.10
2023-05-13T06:38:17.215Z,6.67
2023-05-13T06:42:18.391Z,7.30
2023-05-13T06:46:19.626Z,6.50
2023-05-13T06:50:21.111Z,6.37
2023-05-13T06:54:26.001Z,6.20
2023-05-13T06:58:27.559Z,7.67
2023-05-13T07:02:28.733Z,5.60
2023-05-13T07:06:30.275Z,13.30
2023-05-13T07:10:33.578Z,6.30
2023-05-13T07:14:35.599Z,6.00
2023-05-13T07:18:36.799Z,6.10
2023-05-13T07:22:38.170Z,6.33
2023-05-13T07:26:39.326Z,6.37
2023-05-13T07:30:41.144Z,4.93
2023-05-13T07:34:43.065Z,6.33
2023-05-13T07:38:44.205Z,7.53
2023-05-13T07:42:45.970Z,5.40
2023-05-13T07:46:48.129Z,6.20
2023-05-13T07:50:49.516Z,5.83
2023-05-13T07:54:51.419Z,4.87
2023-05-13T07:58:52.563Z,4.97
2023-05-13T08:02:54.174Z,5.17
2023-05-13T08:06:55.513Z,5.27
2023-05-13T08:10:56.731Z,7.33
2023-05-13T08:14:58.286Z,5.10
2023-05-13T08:18:59.906Z,5.63
2023-05-13T08:23:01.910Z,5.20
2023-05-13T08:27:05.014Z,6.33
2023-05-13T08:31:06.150Z,4.90
2023-05-13T08:35:08.017Z,4.87
2023-05-13T08:39:09.175Z,5.40
2023-05-13T08:43:12.745Z,4.10
2023-05-13T08:47:17.876Z,7.87
2023-05-13T08:51:19.171Z,4.90
2023-05-13T08:55:21.411Z,5.73
2023-05-13T08:59:22.725Z,3.90
2023-05-13T09:03:26.898Z,5.00
2023-05-13T09:07:30.145Z,4.43
2023-05-13T09:11:33.093Z,5.70
2023-05-13T09:15:34.261Z,5.73
2023-05-13T09:19:35.518Z,5.47
2023-05-13T09:23:36.818Z,10.63
2023-05-13T09:27:41.576Z,5.30
2023-05-13T09:31:44.355Z,5.53
2023-05-13T09:35:51.789Z,5.27
2023-05-13T09:39:54.357Z,4.90
2023-05-13T09:43:55.543Z,5.13
2023-05-13T09:47:56.862Z,4.90
2023-05-13T09:51:57.984Z,4.50
2023-05-13T09:56:00.825Z,5.53
2023-05-13T10:00:07.384Z,4.47
2023-05-13T10:04:10.288Z,5.83
2023-05-13T10:08:13.110Z,5.43
2023-05-13T10:12:14.675Z,6.37
2023-05-13T10:16:17.772Z,7.73
2023-05-13T10:20:19.034Z,4.50
2023-05-13T10:24:21.432Z,5.30
2023-05-13T10:28:24.490Z,6.90
2023-05-13T10:32:27.544Z,7.90
2023-05-13T10:36:47.673Z,6.37
2023-05-13T10:41:01.240Z,7.70
2023-05-13T10:45:02.650Z,5.70
2023-05-13T10:49:04.010Z,6.00
2023-05-13T10:53:09.483Z,5.37
2023-05-13T10:57:12.767Z,5.17
2023-05-13T11:01:21.628Z,8.20
2023-05-13T11:05:22.759Z,6.37
2023-05-13T11:09:29.830Z,6.00
2023-05-13T11:13:36.699Z,6.40
2023-05-13T11:17:39.086Z,5.93
2023-05-13T11:21:41.018Z,6.57
2023-05-13T11:25:43.873Z,9.50
2023-05-13T11:29:52.661Z,6.43
2023-05-13T11:34:08.958Z,7.93
2023-05-13T11:38:13.914Z,7.77
2023-05-13T11:42:16.281Z,7.03
2023-05-13T11:46:21.706Z,5.43
2023-05-13T11:50:26.251Z,5.27
2023-05-13T11:54:27.497Z,6.37
2023-05-13T11:58:28.677Z,5.57
2023-05-13T12:02:36.723Z,6.50
2023-05-13T12:06:45.208Z,6.00
2023-05-13T12:10:46.377Z,5.90
2023-05-13T12:14:52.205Z,5.33
2023-05-13T12:19:07.254Z,5.17
2023-05-13T12:23:11.122Z,5.00
2023-05-13T12:27:12.285Z,6.80
2023-05-13T12:31:16.390Z,4.53
2023-05-13T12:35:17.522Z,4.23
2023-05-13T12:39:19.890Z,5.33
2023-05-13T12:43:21.059Z,7.33
2023-05-13T12:47:22.514Z,5.67
2023-05-13T12:51:24.083Z,5.57
2023-05-13T12:55:26.576Z,6.40
2023-05-13T12:59:28.768Z,6.30
2023-05-13T13:03:30.442Z,5.87
2023-05-13T13:07:32.265Z,4.90
2023-05-13T13:11:33.504Z,5.47
2023-05-13T13:15:37.116Z,5.70
2023-05-13T13:19:38.337Z,9.30
2023-05-13T13:23:39.669Z,6.37
2023-05-13T13:27:40.835Z,6.07
2023-05-13T13:31:42.215Z,5.30
2023-05-13T13:35:44.183Z,6.53
2023-05-13T13:39:45.337Z,5.13
2023-05-13T13:43:46.507Z,5.30
2023-05-13T13:47:47.731Z,5.17
2023-05-13T13:51:49.126Z,5.77
2023-05-13T13:55:50.366Z,5.53
2023-05-13T13:59:51.509Z,6.67
2023-05-13T14:03:56.648Z,5.47
2023-05-13T14:07:58.034Z,4.27
2023-05-13T14:11:59.186Z,6.73
2023-05-13T14:16:00.563Z,5.30
2023-05-13T14:20:01.871Z,4.93
2023-05-13T14:24:03.309Z,5.00
2023-05-13T14:28:04.762Z,6.60
2023-05-13T14:32:06.580Z,5.07
2023-05-13T14:36:09.867Z,5.00
2023-05-13T14:40:11.160Z,5.40
2023-05-13T14:44:12.825Z,4.90
2023-05-13T14:48:15.638Z,10.90
2023-05-13T14:52:16.755Z,6.50
2023-05-13T14:56:17.945Z,6.20
2023-05-13T15:00:19.261Z,6.37
2023-05-13T15:04:20.872Z,7.33
2023-05-13T15:08:22.118Z,5.63
2023-05-13T15:12:23.273Z,5.40
2023-05-13T15:16:24.450Z,7.53
2023-05-13T15:20:25.603Z,5.40
2023-05-13T15:24:26.792Z,6.10
2023-05-13T15:28:28.432Z,6.10
2023-05-13T15:32:29.613Z,7.90
2023-05-13T15:36:35.624Z,4.77
2023-05-13T15:40:37.700Z,8.10
2023-05-13T15:44:38.995Z,4.80
2023-05-13T15:48:40.447Z,4.20
2023-05-13T15:52:41.569Z,5.30
2023-05-13T15:56:42.734Z,4.33
2023-05-13T16:00:43.901Z,4.50
2023-05-13T16:04:45.117Z,6.90
2023-05-13T16:08:47.585Z,5.17
2023-05-13T16:12:48.760Z,6.03
2023-05-13T16:16:50.327Z,5.10
2023-05-13T16:20:51.883Z,6.30
2023-05-13T16:24:58.332Z,7.63
2023-05-13T16:29:00.343Z,5.30
2023-05-13T16:33:02.146Z,9.60
2023-05-13T16:37:03.607Z,5.10
2023-05-13T16:41:05.205Z,5.03
2023-05-13T16:45:07.013Z,5.00
2023-05-13T16:49:10.117Z,8.00
2023-05-13T16:53:12.744Z,7.10
2023-05-13T16:57:17.332Z,4.70
2023-05-13T17:01:18.618Z,10.03
2023-05-13T17:05:19.816Z,5.40
2023-05-13T17:09:20.962Z,6.63
2023-05-13T17:13:22.155Z,7.83
2023-05-13T17:17:23.397Z,6.27
2023-05-13T17:21:24.945Z,5.93
2023-05-13T17:25:26.100Z,5.43
2023-05-13T17:29:27.288Z,5.30
2023-05-13T17:33:28.449Z,6.50
2023-05-13T17:37:29.542Z,5.87
2023-05-13T17:41:30.662Z,5.63
2023-05-13T17:45:32.156Z,5.07
2023-05-13T17:49:33.282Z,8.03
2023-05-13T17:53:35.110Z,6.50
2023-05-13T17:57:36.394Z,7.27
2023-05-13T18:01:37.725Z,8.50
2023-05-13T18:05:39.184Z,6.20
2023-05-13T18:09:40.321Z,6.90
2023-05-13T18:13:41.489Z,6.43
2023-05-13T18:17:42.877Z,7.47
2023-05-13T18:21:45.929Z,9.47
2023-05-13T18:25:55.589Z,8.40
2023-05-13T18:29:51.005Z,8.60
2023-05-13T18:33:52.072Z,8.73
2023-05-13T18:37:53.614Z,8.40
2023-05-13T18:41:54.757Z,8.37
2023-05-13T18:45:57.790Z,7.80
2023-05-13T18:49:59.370Z,6.67
2023-05-13T18:54:00.620Z,6.77
2023-05-13T18:58:01.663Z,15.00
2023-05-13T19:02:02.890Z,10.57
2023-05-13T19:06:04.505Z,9.13
2023-05-13T19:10:06.435Z,6.70
2023-05-13T19:14:07.630Z,7.80
2023-05-13T19:18:08.804Z,8.03
2023-05-13T19:22:10.019Z,8.10
2023-05-13T19:26:11.073Z,7.83
2023-05-13T19:30:12.645Z,13.50
2023-05-13T19:34:13.992Z,9.17
2023-05-13T19:38:15.155Z,8.63
2023-05-13T19:42:16.304Z,8.83
2023-05-13T19:46:17.502Z,7.50
2023-05-13T19:50:18.630Z,17.67
2023-05-13T19:54:20.066Z,11.40
2023-05-13T19:58:21.223Z,10.83
2023-05-13T20:02:22.404Z,8.63
2023-05-13T20:06:23.880Z,10.40
2023-05-13T20:10:25.209Z,9.20
2023-05-13T20:14:30.273Z,8.20
2023-05-13T20:18:31.516Z,8.07
2023-05-13T20:22:33.897Z,8.43
2023-05-13T20:26:35.266Z,8.40
2023-05-13T20:30:36.400Z,8.77
2023-05-13T20:34:37.605Z,9.30
2023-05-13T20:38:38.763Z,9.17
2023-05-13T20:42:40.578Z,13.40
2023-05-13T20:46:42.462Z,8.20
2023-05-13T20:50:43.668Z,8.60
2023-05-13T20:54:44.903Z,9.00
2023-05-13T20:58:46.133Z,10.00
2023-05-13T21:02:48.057Z,10.07
2023-05-13T21:06:51.843Z,11.00
2023-05-13T21:10:54.903Z,10.73
2023-05-13T21:14:56.095Z,8.47
2023-05-13T21:18:57.557Z,8.63
2023-05-13T21:23:00.215Z,10.77
2023-05-13T21:27:01.602Z,10.77
2023-05-13T21:31:02.970Z,11.83
2023-05-13T21:35:04.649Z,11.80
2023-05-13T21:39:07.012Z,9.50
2023-05-13T21:43:08.669Z,10.40
2023-05-13T21:47:09.893Z,9.17
2023-05-13T21:51:11.066Z,8.60
2023-05-13T21:55:12.347Z,8.90
2023-05-13T21:59:13.496Z,10.97
2023-05-13T22:03:15.616Z,12.50
2023-05-13T22:07:16.729Z,13.40
2023-05-13T22:11:17.892Z,11.30
2023-05-13T22:15:18.947Z,10.53
2023-05-13T22:19:20.151Z,11.37
2023-05-13T22:23:21.278Z,13.30
2023-05-13T22:27:22.426Z,11.80
2023-05-13T22:31:23.820Z,15.40
2023-05-13T22:35:25.008Z,14.60
2023-05-13T22:39:26.280Z,10.90
2023-05-13T22:43:27.431Z,9.50
2023-05-13T22:47:28.651Z,11.10
2023-05-13T22:51:29.771Z,9.93
2023-05-13T22:55:30.931Z,10.10
2023-05-13T22:59:32.108Z,10.67
2023-05-13T23:03:33.276Z,9.77
2023-05-13T23:07:34.432Z,11.37
2023-05-13T23:11:36.285Z,10.53
2023-05-13T23:15:37.464Z,13.00
2023-05-13T23:19:38.617Z,15.53
2023-05-13T23:23:39.889Z,12.43
2023-05-13T23:27:41.040Z,12.70
2023-05-13T23:31:42.490Z,12.03
2023-05-13T23:35:43.694Z,10.70
2023-05-13T23:39:45.010Z,9.70
2023-05-13T23:43:46.130Z,9.30
2023-05-13T23:47:47.329Z,9.93
2023-05-13T23:51:48.476Z,10.20
2023-05-13T23:55:49.967Z,8.80
2023-05-13T23:59:51.026Z,9.97
